^^
Saratoga-Weather Station Historical Data
Daily Summary for February 11, 2021 Units:  Both    English   Metric
Daily Weekly Monthly Yearly Custom
  High: Low: Average:
Temperature: 72.3 °F /  22.4 °C 55.6 °F /  13.1 °C 64.9 °F /  18.3 °C
Dew Point: 63.1 °F /  17.3 °C 53.2 °F /  11.8 °C 59 °F /  15 °C
Humidity: 96% 56% 82%
Wind Speed: 11mph /  17.7km/h - 2mph /  3.2km/h
Wind Gust: 13mph /  20.9km/h - -
Wind- - WSW
Pressure: 30.1 in /  1018.3 hPa 30 in /  1015.6 hPa -
Precipitation: 0.06 in /  1.5 mm    
Historical Graphs
 
 
Tabular Data for February 11, 2021
Time Temperature Dew Point Pressure Wind Wind Speed Wind Gust Humidity Rainfall Rate (Hourly) solar
00:03 62.8 °F /  17.1 °C 61.3 °F /  16.3 °C 30in /  1015.6hPa Calm   1mph /  1.6km/h 95% 0in /  0.0mm 0 W/m2
00:08 62.8 °F /  17.1 °C 61.3 °F /  16.3 °C 30in /  1015.6hPa Calm     95% 0in /  0.0mm 0 W/m2
00:13 62.8 °F /  17.1 °C 61.3 °F /  16.3 °C 30in /  1015.6hPa Calm     95% 0in /  0.0mm 0 W/m2
00:18 62.8 °F /  17.1 °C 61.3 °F /  16.3 °C 30in /  1015.9hPa Calm     95% 0in /  0.0mm 0 W/m2
00:23 62.8 °F /  17.1 °C 61.3 °F /  16.3 °C 30in /  1015.9hPa Calm     95% 0in /  0.0mm 0 W/m2
00:28 62.8 °F /  17.1 °C 61.3 °F /  16.3 °C 30in /  1015.9hPa Calm     95% 0in /  0.0mm 0 W/m2
00:33 62.8 °F /  17.1 °C 61.3 °F /  16.3 °C 30in /  1015.9hPa Calm     95% 0in /  0.0mm 0 W/m2
00:38 62.8 °F /  17.1 °C 61.3 °F /  16.3 °C 30in /  1015.9hPa ESE 0.9mph /  1.4km/h 1mph /  1.6km/h 95% 0in /  0.0mm 0 W/m2
00:43 62.8 °F /  17.1 °C 61.3 °F /  16.3 °C 30in /  1015.9hPa ESE 0.9mph /  1.4km/h 2mph /  3.2km/h 95% 0in /  0.0mm 0 W/m2
00:48 62.8 °F /  17.1 °C 61.3 °F /  16.3 °C 30in /  1015.9hPa ESE 2mph /  3.2km/h 2mph /  3.2km/h 95% 0in /  0.0mm 0 W/m2
00:53 62.8 °F /  17.1 °C 61.3 °F /  16.3 °C 30in /  1015.9hPa Calm   2mph /  3.2km/h 95% 0in /  0.0mm 0 W/m2
00:58 62.8 °F /  17.1 °C 61.7 °F /  16.5 °C 30in /  1015.9hPa Calm   2mph /  3.2km/h 96% 0.03in /  0.8mm 0 W/m2
01:03 62.8 °F /  17.1 °C 61.7 °F /  16.5 °C 30in /  1015.9hPa Calm   1mph /  1.6km/h 96% 0.04in /  1.0mm 0 W/m2
01:08 63 °F /  17.2 °C 61.9 °F /  16.6 °C 30in /  1015.9hPa Calm   2mph /  3.2km/h 96% 0.04in /  1.0mm 0 W/m2
01:13 63 °F /  17.2 °C 61.9 °F /  16.6 °C 30in /  1015.9hPa ENE 0.9mph /  1.4km/h 2mph /  3.2km/h 96% 0.04in /  1.0mm 0 W/m2
01:18 63 °F /  17.2 °C 61.9 °F /  16.6 °C 30in /  1015.9hPa Calm   1mph /  1.6km/h 96% 0.04in /  1.0mm 0 W/m2
01:23 62.8 °F /  17.1 °C 61.7 °F /  16.5 °C 30in /  1015.9hPa ENE 2mph /  3.2km/h 2mph /  3.2km/h 96% 0.04in /  1.0mm 0 W/m2
01:28 63 °F /  17.2 °C 61.9 °F /  16.6 °C 30in /  1015.9hPa East 2mph /  3.2km/h 2mph /  3.2km/h 96% 0.04in /  1.0mm 0 W/m2
01:33 63 °F /  17.2 °C 61.9 °F /  16.6 °C 30in /  1015.9hPa Calm   1mph /  1.6km/h 96% 0.04in /  1.0mm 0 W/m2
01:38 63 °F /  17.2 °C 61.9 °F /  16.6 °C 30in /  1015.9hPa Calm   2mph /  3.2km/h 96% 0.04in /  1.0mm 0 W/m2
01:43 63 °F /  17.2 °C 61.9 °F /  16.6 °C 30in /  1015.9hPa ENE 0.9mph /  1.4km/h 2mph /  3.2km/h 96% 0.04in /  1.0mm 0 W/m2
01:49 63 °F /  17.2 °C 61.9 °F /  16.6 °C 30in /  1015.9hPa ENE 2.9mph /  4.7km/h 3mph /  4.8km/h 96% 0.04in /  1.0mm 0 W/m2
01:54 63 °F /  17.2 °C 61.9 °F /  16.6 °C 30in /  1015.9hPa Calm   2mph /  3.2km/h 96% 0.04in /  1.0mm 0 W/m2
01:59 63 °F /  17.2 °C 61.9 °F /  16.6 °C 30in /  1015.9hPa Calm   2mph /  3.2km/h 96% 0.01in /  0.2mm 0 W/m2
02:04 63 °F /  17.2 °C 61.9 °F /  16.6 °C 30in /  1015.9hPa East 2mph /  3.2km/h 3mph /  4.8km/h 96% 0in /  0.0mm 0 W/m2
02:09 63 °F /  17.2 °C 61.9 °F /  16.6 °C 30in /  1015.9hPa SSE 0.9mph /  1.4km/h 2mph /  3.2km/h 96% 0in /  0.0mm 0 W/m2
02:14 63 °F /  17.2 °C 61.9 °F /  16.6 °C 30in /  1015.9hPa Calm   2mph /  3.2km/h 96% 0in /  0.0mm 0 W/m2
02:19 63 °F /  17.2 °C 61.5 °F /  16.4 °C 30in /  1015.9hPa East 2mph /  3.2km/h 3mph /  4.8km/h 95% 0in /  0.0mm 0 W/m2
02:24 63 °F /  17.2 °C 61.5 °F /  16.4 °C 30in /  1015.9hPa ENE 0.9mph /  1.4km/h 1mph /  1.6km/h 95% 0in /  0.0mm 0 W/m2
02:29 62.8 °F /  17.1 °C 61.3 °F /  16.3 °C 30in /  1015.9hPa Calm   3mph /  4.8km/h 95% 0in /  0.0mm 0 W/m2
02:34 62.8 °F /  17.1 °C 61.3 °F /  16.3 °C 30in /  1015.9hPa Calm   1mph /  1.6km/h 95% 0in /  0.0mm 0 W/m2
02:39 62.8 °F /  17.1 °C 61.3 °F /  16.3 °C 30in /  1015.9hPa Calm   1mph /  1.6km/h 95% 0in /  0.0mm 0 W/m2
02:44 62.8 °F /  17.1 °C 61.3 °F /  16.3 °C 30in /  1015.9hPa West 0.9mph /  1.4km/h 3mph /  4.8km/h 95% 0in /  0.0mm 0 W/m2
02:49 63 °F /  17.2 °C 61.5 °F /  16.4 °C 30in /  1015.9hPa Calm   1mph /  1.6km/h 95% 0in /  0.0mm 0 W/m2
02:54 63 °F /  17.2 °C 61.5 °F /  16.4 °C 30in /  1015.9hPa West 0.9mph /  1.4km/h 3mph /  4.8km/h 95% 0in /  0.0mm 0 W/m2
02:59 63 °F /  17.2 °C 61.5 °F /  16.4 °C 30in /  1015.9hPa Calm   2mph /  3.2km/h 95% 0in /  0.0mm 0 W/m2
03:04 63 °F /  17.2 °C 61.5 °F /  16.4 °C 30in /  1015.9hPa Calm   1mph /  1.6km/h 95% 0in /  0.0mm 0 W/m2
03:09 63 °F /  17.2 °C 61.9 °F /  16.6 °C 30in /  1015.9hPa East 2mph /  3.2km/h 3mph /  4.8km/h 96% 0in /  0.0mm 0 W/m2
03:14 63 °F /  17.2 °C 61.9 °F /  16.6 °C 30in /  1015.9hPa Calm     96% 0in /  0.0mm 0 W/m2
03:19 63 °F /  17.2 °C 61.9 °F /  16.6 °C 30in /  1015.9hPa Calm   2mph /  3.2km/h 96% 0in /  0.0mm 0 W/m2
03:24 63 °F /  17.2 °C 61.9 °F /  16.6 °C 30in /  1015.9hPa SW 0.9mph /  1.4km/h 2mph /  3.2km/h 96% 0in /  0.0mm 0 W/m2
03:29 63 °F /  17.2 °C 61.9 °F /  16.6 °C 30in /  1015.9hPa SW 0.9mph /  1.4km/h 1mph /  1.6km/h 96% 0in /  0.0mm 0 W/m2
03:34 63 °F /  17.2 °C 61.9 °F /  16.6 °C 30in /  1015.9hPa Calm     96% 0in /  0.0mm 0 W/m2
03:39 63 °F /  17.2 °C 61.9 °F /  16.6 °C 30in /  1015.9hPa Calm   1mph /  1.6km/h 96% 0in /  0.0mm 0 W/m2
03:44 63 °F /  17.2 °C 61.9 °F /  16.6 °C 30in /  1015.9hPa Calm     96% 0in /  0.0mm 0 W/m2
03:49 63 °F /  17.2 °C 61.9 °F /  16.6 °C 30in /  1015.9hPa NW 0.9mph /  1.4km/h 2mph /  3.2km/h 96% 0in /  0.0mm 0 W/m2
03:54 63 °F /  17.2 °C 61.5 °F /  16.4 °C 30in /  1015.9hPa Calm   2mph /  3.2km/h 95% 0in /  0.0mm 0 W/m2
03:59 63 °F /  17.2 °C 61.5 °F /  16.4 °C 30in /  1015.9hPa Calm   1mph /  1.6km/h 95% 0in /  0.0mm 0 W/m2
04:04 62.8 °F /  17.1 °C 61.3 °F /  16.3 °C 30in /  1015.9hPa Calm     95% 0in /  0.0mm 0 W/m2
04:09 62.8 °F /  17.1 °C 61.3 °F /  16.3 °C 30in /  1015.9hPa Calm   1mph /  1.6km/h 95% 0in /  0.0mm 0 W/m2
04:14 62.8 °F /  17.1 °C 61.3 °F /  16.3 °C 30in /  1015.9hPa Calm     95% 0in /  0.0mm 0 W/m2
04:19 62.8 °F /  17.1 °C 61.3 °F /  16.3 °C 30in /  1015.9hPa Calm     95% 0in /  0.0mm 0 W/m2
04:24 62.6 °F /  17 °C 61.2 °F /  16.2 °C 30in /  1015.9hPa Calm     95% 0in /  0.0mm 0 W/m2
04:29 62.6 °F /  17 °C 61.5 °F /  16.4 °C 30in /  1015.9hPa Calm   1mph /  1.6km/h 96% 0in /  0.0mm 0 W/m2
04:34 62.4 °F /  16.9 °C 61.3 °F /  16.3 °C 30in /  1015.9hPa SE 0.9mph /  1.4km/h 1mph /  1.6km/h 96% 0in /  0.0mm 0 W/m2
04:39 62.4 °F /  16.9 °C 61.3 °F /  16.3 °C 30in /  1015.9hPa Calm     96% 0in /  0.0mm 0 W/m2
04:44 62.4 °F /  16.9 °C 61.3 °F /  16.3 °C 30in /  1015.9hPa Calm   1mph /  1.6km/h 96% 0in /  0.0mm 0 W/m2
04:49 62.4 °F /  16.9 °C 61.3 °F /  16.3 °C 30in /  1015.9hPa Calm     96% 0in /  0.0mm 0 W/m2
04:54 62.4 °F /  16.9 °C 61.3 °F /  16.3 °C 30in /  1015.9hPa Calm   2mph /  3.2km/h 96% 0in /  0.0mm 0 W/m2
04:59 62.4 °F /  16.9 °C 61.3 °F /  16.3 °C 30in /  1015.9hPa Calm     96% 0in /  0.0mm 0 W/m2
05:04 62.4 °F /  16.9 °C 61.3 °F /  16.3 °C 30in /  1015.9hPa Calm   2mph /  3.2km/h 96% 0in /  0.0mm 0 W/m2
05:09 62.4 °F /  16.9 °C 61.3 °F /  16.3 °C 30in /  1015.9hPa Calm   1mph /  1.6km/h 96% 0in /  0.0mm 0 W/m2
05:14 62.4 °F /  16.9 °C 61.3 °F /  16.3 °C 30in /  1015.9hPa Calm   1mph /  1.6km/h 96% 0in /  0.0mm 0 W/m2
05:19 62.4 °F /  16.9 °C 61.3 °F /  16.3 °C 30in /  1015.6hPa ESE 2mph /  3.2km/h 2mph /  3.2km/h 96% 0in /  0.0mm 0 W/m2
05:24 62.4 °F /  16.9 °C 61.3 °F /  16.3 °C 30in /  1015.6hPa ESE 0.9mph /  1.4km/h 1mph /  1.6km/h 96% 0in /  0.0mm 0 W/m2
05:29 62.4 °F /  16.9 °C 61.3 °F /  16.3 °C 30in /  1015.9hPa SW 0.9mph /  1.4km/h 2mph /  3.2km/h 96% 0in /  0.0mm 0 W/m2
05:34 62.4 °F /  16.9 °C 61.3 °F /  16.3 °C 30in /  1015.9hPa East 0.9mph /  1.4km/h 2mph /  3.2km/h 96% 0in /  0.0mm 0 W/m2
05:39 62.4 °F /  16.9 °C 61.3 °F /  16.3 °C 30in /  1015.9hPa Calm   1mph /  1.6km/h 96% 0in /  0.0mm 0 W/m2
05:44 62.4 °F /  16.9 °C 61.3 °F /  16.3 °C 30in /  1015.9hPa Calm   1mph /  1.6km/h 96% 0in /  0.0mm 0 W/m2
05:49 62.4 °F /  16.9 °C 61.3 °F /  16.3 °C 30in /  1015.9hPa Calm   1mph /  1.6km/h 96% 0in /  0.0mm 0 W/m2
05:54 62.4 °F /  16.9 °C 61.3 °F /  16.3 °C 30in /  1015.9hPa Calm   1mph /  1.6km/h 96% 0in /  0.0mm 0 W/m2
05:59 62.4 °F /  16.9 °C 61.3 °F /  16.3 °C 30in /  1015.9hPa Calm     96% 0in /  0.0mm 0 W/m2
06:04 62.4 °F /  16.9 °C 61.3 °F /  16.3 °C 30in /  1015.9hPa Calm     96% 0in /  0.0mm 0 W/m2
06:09 62.4 °F /  16.9 °C 61.3 °F /  16.3 °C 30in /  1015.9hPa NNW 0.9mph /  1.4km/h 3mph /  4.8km/h 96% 0in /  0.0mm 0 W/m2
06:14 62.6 °F /  17 °C 61.5 °F /  16.4 °C 30in /  1015.9hPa Calm   1mph /  1.6km/h 96% 0in /  0.0mm 0 W/m2
06:19 62.6 °F /  17 °C 61.5 °F /  16.4 °C 30in /  1015.9hPa Calm   3mph /  4.8km/h 96% 0.01in /  0.2mm 0 W/m2
06:24 62.6 °F /  17 °C 61.5 °F /  16.4 °C 30in /  1015.9hPa Calm     96% 0.01in /  0.2mm 0 W/m2
06:29 62.6 °F /  17 °C 61.5 °F /  16.4 °C 30in /  1015.9hPa Calm   1mph /  1.6km/h 96% 0.02in /  0.5mm 0 W/m2
06:34 62.6 °F /  17 °C 61.5 °F /  16.4 °C 30in /  1015.9hPa NNW 0.9mph /  1.4km/h 1mph /  1.6km/h 96% 0.02in /  0.5mm 0 W/m2
06:39 62.6 °F /  17 °C 61.5 °F /  16.4 °C 30in /  1015.9hPa Calm   1mph /  1.6km/h 96% 0.02in /  0.5mm 0 W/m2
06:44 62.6 °F /  17 °C 61.5 °F /  16.4 °C 30in /  1015.9hPa Calm     96% 0.02in /  0.5mm 0 W/m2
06:50 62.6 °F /  17 °C 61.5 °F /  16.4 °C 30in /  1015.9hPa WNW 0.9mph /  1.4km/h 3mph /  4.8km/h 96% 0.02in /  0.5mm 0 W/m2
06:55 62.6 °F /  17 °C 61.5 °F /  16.4 °C 30in /  1016.3hPa WNW 0.9mph /  1.4km/h 2mph /  3.2km/h 96% 0.02in /  0.5mm 0 W/m2
07:00 62.6 °F /  17 °C 61.5 °F /  16.4 °C 30in /  1015.9hPa WNW 2.9mph /  4.7km/h 3mph /  4.8km/h 96% 0.02in /  0.5mm 0 W/m2
07:05 62.6 °F /  17 °C 61.5 °F /  16.4 °C 30in /  1016.3hPa WNW 2mph /  3.2km/h 4mph /  6.4km/h 96% 0.02in /  0.5mm 0 W/m2
07:10 62.6 °F /  17 °C 61.5 °F /  16.4 °C 30in /  1016.3hPa West 4mph /  6.4km/h 4mph /  6.4km/h 96% 0.02in /  0.5mm 0 W/m2
07:15 62.6 °F /  17 °C 61.5 °F /  16.4 °C 30in /  1016.3hPa West 2.9mph /  4.7km/h 7mph /  11.3km/h 96% 0.02in /  0.5mm 0 W/m2
07:20 62.6 °F /  17 °C 61.5 °F /  16.4 °C 30in /  1016.3hPa West 2.9mph /  4.7km/h 4mph /  6.4km/h 96% 0.02in /  0.5mm 0 W/m2
07:25 62.8 °F /  17.1 °C 61.3 °F /  16.3 °C 30in /  1016.3hPa WSW 2.9mph /  4.7km/h 4mph /  6.4km/h 95% 0.01in /  0.2mm 0 W/m2
07:30 62.8 °F /  17.1 °C 61.3 °F /  16.3 °C 30in /  1016.3hPa WNW 2mph /  3.2km/h 6mph /  9.7km/h 95% 0.01in /  0.2mm 5 W/m2
07:35 62.8 °F /  17.1 °C 61.3 °F /  16.3 °C 30in /  1016.3hPa West 2.9mph /  4.7km/h 4mph /  6.4km/h 95% 0.01in /  0.2mm 9 W/m2
07:40 62.8 °F /  17.1 °C 61.3 °F /  16.3 °C 30in /  1016.3hPa Calm   5mph /  8km/h 95% 0.01in /  0.2mm 11 W/m2
07:45 62.8 °F /  17.1 °C 61.3 °F /  16.3 °C 30in /  1016.3hPa Calm   2mph /  3.2km/h 95% 0.01in /  0.2mm 11 W/m2
07:50 62.6 °F /  17 °C 61.2 °F /  16.2 °C 30in /  1016.3hPa West 0.9mph /  1.4km/h 3mph /  4.8km/h 95% 0.01in /  0.2mm 12 W/m2
07:55 62.4 °F /  16.9 °C 61 °F /  16.1 °C 30in /  1016.3hPa WNW 2.9mph /  4.7km/h 6mph /  9.7km/h 95% 0.01in /  0.2mm 18 W/m2
08:00 62.4 °F /  16.9 °C 61 °F /  16.1 °C 30in /  1016.6hPa WSW 0.9mph /  1.4km/h 6mph /  9.7km/h 95% 0.01in /  0.2mm 35 W/m2
08:05 62.4 °F /  16.9 °C 61 °F /  16.1 °C 30in /  1016.6hPa West 2mph /  3.2km/h 3mph /  4.8km/h 95% 0.01in /  0.2mm 51 W/m2
08:10 62.6 °F /  17 °C 61.5 °F /  16.4 °C 30in /  1016.6hPa West 0.9mph /  1.4km/h 6mph /  9.7km/h 96% 0.01in /  0.2mm 60 W/m2
08:15 62.8 °F /  17.1 °C 61.3 °F /  16.3 °C 30in /  1016.6hPa West 2mph /  3.2km/h 4mph /  6.4km/h 95% 0.01in /  0.2mm 60 W/m2
08:20 62.8 °F /  17.1 °C 61.3 °F /  16.3 °C 30in /  1016.6hPa West 0.9mph /  1.4km/h 2mph /  3.2km/h 95% 0in /  0.0mm 62 W/m2
08:25 63 °F /  17.2 °C 61.5 °F /  16.4 °C 30in /  1016.9hPa West 2mph /  3.2km/h 4mph /  6.4km/h 95% 0in /  0.0mm 51 W/m2
08:30 63 °F /  17.2 °C 61.5 °F /  16.4 °C 30in /  1016.9hPa West 2mph /  3.2km/h 3mph /  4.8km/h 95% 0in /  0.0mm 47 W/m2
08:35 63.1 °F /  17.3 °C 61.7 °F /  16.5 °C 30in /  1016.9hPa WSW 0.9mph /  1.4km/h 3mph /  4.8km/h 95% 0in /  0.0mm 25 W/m2
08:40 63.1 °F /  17.3 °C 61.7 °F /  16.5 °C 30in /  1016.9hPa West 0.9mph /  1.4km/h 1mph /  1.6km/h 95% 0in /  0.0mm 42 W/m2
08:45 63.1 °F /  17.3 °C 61.7 °F /  16.5 °C 30in /  1016.9hPa West 2mph /  3.2km/h 3mph /  4.8km/h 95% 0in /  0.0mm 62 W/m2
08:50 63.1 °F /  17.3 °C 61.7 °F /  16.5 °C 30in /  1016.9hPa WSW 2.9mph /  4.7km/h 3mph /  4.8km/h 95% 0in /  0.0mm 83 W/m2
08:55 63.3 °F /  17.4 °C 61.9 °F /  16.6 °C 30in /  1016.9hPa WNW 2mph /  3.2km/h 4mph /  6.4km/h 95% 0in /  0.0mm 81 W/m2
09:00 63.3 °F /  17.4 °C 61.9 °F /  16.6 °C 30in /  1016.9hPa WNW 0.9mph /  1.4km/h 1mph /  1.6km/h 95% 0in /  0.0mm 114 W/m2
09:05 63.7 °F /  17.6 °C 62.2 °F /  16.8 °C 30in /  1016.9hPa WSW 2mph /  3.2km/h 3mph /  4.8km/h 95% 0in /  0.0mm 144 W/m2
09:10 63.9 °F /  17.7 °C 62.4 °F /  16.9 °C 30in /  1016.9hPa WNW 2mph /  3.2km/h 2mph /  3.2km/h 95% 0in /  0.0mm 123 W/m2
09:15 63.9 °F /  17.7 °C 62.4 °F /  16.9 °C 30in /  1016.9hPa WNW 0.9mph /  1.4km/h 3mph /  4.8km/h 95% 0in /  0.0mm 121 W/m2
09:20 64.2 °F /  17.9 °C 62.8 °F /  17.1 °C 30in /  1016.9hPa WNW 0.9mph /  1.4km/h 3mph /  4.8km/h 95% 0in /  0.0mm 121 W/m2
09:25 64.4 °F /  18 °C 63 °F /  17.2 °C 30in /  1016.9hPa WNW 0.9mph /  1.4km/h 2mph /  3.2km/h 95% 0in /  0.0mm 130 W/m2
09:30 64.6 °F /  18.1 °C 62.8 °F /  17.1 °C 30in /  1016.9hPa SW 4mph /  6.4km/h 5mph /  8km/h 94% 0in /  0.0mm 149 W/m2
09:35 64.6 °F /  18.1 °C 62.8 °F /  17.1 °C 30in /  1016.9hPa WNW 0.9mph /  1.4km/h 3mph /  4.8km/h 94% 0in /  0.0mm 132 W/m2
09:40 64.8 °F /  18.2 °C 62.6 °F /  17 °C 30in /  1017.3hPa West 2mph /  3.2km/h 3mph /  4.8km/h 93% 0in /  0.0mm 148 W/m2
09:45 64.8 °F /  18.2 °C 62.4 °F /  16.9 °C 30in /  1017.3hPa NW 2.9mph /  4.7km/h 6mph /  9.7km/h 92% 0in /  0.0mm 236 W/m2
09:50 64.9 °F /  18.3 °C 62.6 °F /  17 °C 30in /  1017.3hPa WNW 2mph /  3.2km/h 8mph /  12.9km/h 92% 0in /  0.0mm 107 W/m2
09:55 64.9 °F /  18.3 °C 62.6 °F /  17 °C 30in /  1017.3hPa West 2mph /  3.2km/h 4mph /  6.4km/h 92% 0in /  0.0mm 174 W/m2
10:00 65.1 °F /  18.4 °C 62.8 °F /  17.1 °C 30in /  1017.3hPa NW 2.9mph /  4.7km/h 6mph /  9.7km/h 92% 0in /  0.0mm 269 W/m2
10:05 65.5 °F /  18.6 °C 63.1 °F /  17.3 °C 30in /  1017.3hPa WNW 2.9mph /  4.7km/h 4mph /  6.4km/h 92% 0in /  0.0mm 176 W/m2
10:10 65.5 °F /  18.6 °C 62.4 °F /  16.9 °C 30.1in /  1017.6hPa WNW 4mph /  6.4km/h 8mph /  12.9km/h 90% 0in /  0.0mm 151 W/m2
10:15 65.3 °F /  18.5 °C 62.1 °F /  16.7 °C 30in /  1017.3hPa NW 2mph /  3.2km/h 6mph /  9.7km/h 89% 0in /  0.0mm 128 W/m2
10:20 65.3 °F /  18.5 °C 62.1 °F /  16.7 °C 30in /  1017.3hPa West 2mph /  3.2km/h 3mph /  4.8km/h 89% 0in /  0.0mm 114 W/m2
10:25 65.3 °F /  18.5 °C 62.1 °F /  16.7 °C 30.1in /  1017.6hPa WNW 2.9mph /  4.7km/h 5mph /  8km/h 89% 0in /  0.0mm 424 W/m2
10:30 65.7 °F /  18.7 °C 62.6 °F /  17 °C 30.1in /  1017.6hPa WSW 0.9mph /  1.4km/h 2mph /  3.2km/h 90% 0in /  0.0mm 527 W/m2
10:35 66 °F /  18.9 °C 62.6 °F /  17 °C 30.1in /  1017.6hPa West 2mph /  3.2km/h 5mph /  8km/h 89% 0in /  0.0mm 146 W/m2
10:40 66.4 °F /  19.1 °C 62.4 °F /  16.9 °C 30.1in /  1017.6hPa West 4mph /  6.4km/h 7mph /  11.3km/h 87% 0in /  0.0mm 517 W/m2
10:45 66.6 °F /  19.2 °C 62.2 °F /  16.8 °C 30.1in /  1017.6hPa Calm   9mph /  14.5km/h 86% 0in /  0.0mm 519 W/m2
10:50 66.7 °F /  19.3 °C 62.1 °F /  16.7 °C 30.1in /  1017.6hPa WSW 2.9mph /  4.7km/h 7mph /  11.3km/h 85% 0in /  0.0mm 501 W/m2
10:55 66.7 °F /  19.3 °C 61.7 °F /  16.5 °C 30.1in /  1017.6hPa West 4mph /  6.4km/h 8mph /  12.9km/h 84% 0in /  0.0mm 158 W/m2
11:00 66.7 °F /  19.3 °C 61.7 °F /  16.5 °C 30.1in /  1017.6hPa WNW 2mph /  3.2km/h 8mph /  12.9km/h 84% 0in /  0.0mm 355 W/m2
11:05 66.9 °F /  19.4 °C 61.9 °F /  16.6 °C 30.1in /  1017.6hPa NW 2.9mph /  4.7km/h 5mph /  8km/h 84% 0in /  0.0mm 297 W/m2
11:10 66.9 °F /  19.4 °C 61.2 °F /  16.2 °C 30.1in /  1018.0hPa WNW 2.9mph /  4.7km/h 9mph /  14.5km/h 82% 0in /  0.0mm 95 W/m2
11:15 66.7 °F /  19.3 °C 61.3 °F /  16.3 °C 30.1in /  1018.0hPa West 6mph /  9.7km/h 6mph /  9.7km/h 83% 0in /  0.0mm 606 W/m2
11:20 67.1 °F /  19.5 °C 61.3 °F /  16.3 °C 30.1in /  1018.0hPa WNW 2mph /  3.2km/h 6mph /  9.7km/h 82% 0in /  0.0mm 635 W/m2
11:25 67.3 °F /  19.6 °C 61.5 °F /  16.4 °C 30.1in /  1018.0hPa West 6mph /  9.7km/h 7mph /  11.3km/h 82% 0in /  0.0mm 220 W/m2
11:30 66.9 °F /  19.4 °C 61 °F /  16.1 °C 30.1in /  1018.0hPa West 2mph /  3.2km/h 13mph /  20.9km/h 81% 0in /  0.0mm 114 W/m2
11:35 66.6 °F /  19.2 °C 61.2 °F /  16.2 °C 30.1in /  1017.6hPa WNW 2.9mph /  4.7km/h 3mph /  4.8km/h 83% 0in /  0.0mm 619 W/m2
11:40 66.6 °F /  19.2 °C 61.2 °F /  16.2 °C 30.1in /  1017.6hPa West 2mph /  3.2km/h 13mph /  20.9km/h 83% 0in /  0.0mm 608 W/m2
11:45 66.9 °F /  19.4 °C 61 °F /  16.1 °C 30.1in /  1017.6hPa NW 2.9mph /  4.7km/h 8mph /  12.9km/h 81% 0in /  0.0mm 621 W/m2
11:50 67.6 °F /  19.8 °C 61 °F /  16.1 °C 30.1in /  1017.6hPa West 6mph /  9.7km/h 7mph /  11.3km/h 79% 0in /  0.0mm 624 W/m2
11:55 68.4 °F /  20.2 °C 61.5 °F /  16.4 °C 30.1in /  1017.6hPa West 2.9mph /  4.7km/h 4mph /  6.4km/h 79% 0in /  0.0mm 638 W/m2
12:00 68.7 °F /  20.4 °C 61.2 °F /  16.2 °C 30.1in /  1017.6hPa WNW 4mph /  6.4km/h 6mph /  9.7km/h 77% 0in /  0.0mm 649 W/m2
12:06 69.3 °F /  20.7 °C 61.7 °F /  16.5 °C 30.1in /  1017.6hPa WSW 4.9mph /  7.9km/h 7mph /  11.3km/h 77% 0in /  0.0mm 671 W/m2
12:11 69.4 °F /  20.8 °C 61.2 °F /  16.2 °C 30.1in /  1017.6hPa SW 4mph /  6.4km/h 8mph /  12.9km/h 75% 0in /  0.0mm 691 W/m2
12:16 69.4 °F /  20.8 °C 60.4 °F /  15.8 °C 30.1in /  1017.6hPa WNW 8.1mph /  13km/h 10mph /  16.1km/h 73% 0in /  0.0mm 694 W/m2
12:21 69.4 °F /  20.8 °C 60.8 °F /  16 °C 30.1in /  1017.6hPa SSW 2.9mph /  4.7km/h 8mph /  12.9km/h 74% 0in /  0.0mm 735 W/m2
12:26 69.4 °F /  20.8 °C 60.8 °F /  16 °C 30.1in /  1017.6hPa WSW 6.9mph /  11.1km/h 10mph /  16.1km/h 74% 0in /  0.0mm 784 W/m2
12:31 68.7 °F /  20.4 °C 60.1 °F /  15.6 °C 30.1in /  1017.6hPa West 6mph /  9.7km/h 9mph /  14.5km/h 74% 0in /  0.0mm 102 W/m2
12:36 68.4 °F /  20.2 °C 60.4 °F /  15.8 °C 30.1in /  1017.6hPa West 2mph /  3.2km/h 7mph /  11.3km/h 76% 0in /  0.0mm 737 W/m2
12:41 68.7 °F /  20.4 °C 60.4 °F /  15.8 °C 30.1in /  1017.6hPa NW 2mph /  3.2km/h 7mph /  11.3km/h 75% 0in /  0.0mm 130 W/m2
12:46 68.5 °F /  20.3 °C 60.3 °F /  15.7 °C 30.1in /  1017.6hPa WNW 2mph /  3.2km/h 8mph /  12.9km/h 75% 0in /  0.0mm 155 W/m2
12:51 68.5 °F /  20.3 °C 60.6 °F /  15.9 °C 30.1in /  1017.6hPa WNW 4mph /  6.4km/h 7mph /  11.3km/h 76% 0in /  0.0mm 789 W/m2
12:56 68.9 °F /  20.5 °C 60.3 °F /  15.7 °C 30in /  1017.3hPa WSW 4mph /  6.4km/h 13mph /  20.9km/h 74% 0in /  0.0mm 791 W/m2
13:01 69.1 °F /  20.6 °C 60.4 °F /  15.8 °C 30.1in /  1017.6hPa WNW 8.1mph /  13km/h 10mph /  16.1km/h 74% 0in /  0.0mm 775 W/m2
13:06 69.1 °F /  20.6 °C 59.7 °F /  15.4 °C 30in /  1017.3hPa WNW 4mph /  6.4km/h 11mph /  17.7km/h 72% 0in /  0.0mm 134 W/m2
13:11 69.3 °F /  20.7 °C 59.9 °F /  15.5 °C 30in /  1017.3hPa WNW 6mph /  9.7km/h 7mph /  11.3km/h 72% 0in /  0.0mm 705 W/m2
13:16 69.6 °F /  20.9 °C 60.3 °F /  15.7 °C 30in /  1017.3hPa West 2.9mph /  4.7km/h 11mph /  17.7km/h 72% 0in /  0.0mm 735 W/m2
13:21 70.2 °F /  21.2 °C 59.9 °F /  15.5 °C 30in /  1017.3hPa West 6.9mph /  11.1km/h 12mph /  19.3km/h 70% 0in /  0.0mm 758 W/m2
13:26 69.8 °F /  21 °C 59.5 °F /  15.3 °C 30in /  1017.3hPa WNW 2.9mph /  4.7km/h 6mph /  9.7km/h 70% 0in /  0.0mm 172 W/m2
13:31 69.4 °F /  20.8 °C 58.8 °F /  14.9 °C 30in /  1017.3hPa NW 2.9mph /  4.7km/h 12mph /  19.3km/h 69% 0in /  0.0mm 197 W/m2
13:36 69.4 °F /  20.8 °C 58.5 °F /  14.7 °C 30in /  1017.3hPa West 6mph /  9.7km/h 8mph /  12.9km/h 68% 0in /  0.0mm 881 W/m2
13:41 70 °F /  21.1 °C 59 °F /  15 °C 30in /  1017.3hPa SW 6mph /  9.7km/h 9mph /  14.5km/h 68% 0in /  0.0mm 666 W/m2
13:46 70.3 °F /  21.3 °C 58.8 °F /  14.9 °C 30in /  1017.3hPa WNW 4.9mph /  7.9km/h 9mph /  14.5km/h 67% 0in /  0.0mm 786 W/m2
13:51 70.3 °F /  21.3 °C 59.4 °F /  15.2 °C 30in /  1017.3hPa NW 4mph /  6.4km/h 9mph /  14.5km/h 68% 0in /  0.0mm 786 W/m2
13:56 70 °F /  21.1 °C 59 °F /  15 °C 30in /  1017.3hPa West 8.1mph /  13km/h 8mph /  12.9km/h 68% 0in /  0.0mm 141 W/m2
14:01 69.6 °F /  20.9 °C 59 °F /  15 °C 30in /  1017.3hPa WNW 4mph /  6.4km/h 8mph /  12.9km/h 69% 0in /  0.0mm 735 W/m2
14:06 70.2 °F /  21.2 °C 59.2 °F /  15.1 °C 30in /  1017.3hPa WNW 6.9mph /  11.1km/h 7mph /  11.3km/h 68% 0in /  0.0mm 700 W/m2
14:11 70.5 °F /  21.4 °C 58.6 °F /  14.8 °C 30in /  1017.3hPa NW 4mph /  6.4km/h 9mph /  14.5km/h 66% 0in /  0.0mm 731 W/m2
14:16 70.9 °F /  21.6 °C 58.1 °F /  14.5 °C 30in /  1017.3hPa NNW 8.1mph /  13km/h 13mph /  20.9km/h 64% 0in /  0.0mm 733 W/m2
14:21 70.9 °F /  21.6 °C 57.2 °F /  14 °C 30in /  1017.3hPa ESE 2.9mph /  4.7km/h 4mph /  6.4km/h 62% 0in /  0.0mm 733 W/m2
14:26 70.9 °F /  21.6 °C 57.2 °F /  14 °C 30in /  1017.3hPa West 2.9mph /  4.7km/h 13mph /  20.9km/h 62% 0in /  0.0mm 740 W/m2
14:31 71.1 °F /  21.7 °C 57.4 °F /  14.1 °C 30in /  1017.3hPa West 4mph /  6.4km/h 10mph /  16.1km/h 62% 0in /  0.0mm 763 W/m2
14:36 71.2 °F /  21.8 °C 58.5 °F /  14.7 °C 30in /  1016.9hPa WSW 8.1mph /  13km/h 8mph /  12.9km/h 64% 0in /  0.0mm 780 W/m2
14:41 71.4 °F /  21.9 °C 57.7 °F /  14.3 °C 30in /  1016.9hPa WNW 4mph /  6.4km/h 8mph /  12.9km/h 62% 0in /  0.0mm 137 W/m2
14:46 71.1 °F /  21.7 °C 56.8 °F /  13.8 °C 30in /  1016.9hPa West 6mph /  9.7km/h 8mph /  12.9km/h 61% 0in /  0.0mm 831 W/m2
14:51 70.9 °F /  21.6 °C 57.2 °F /  14 °C 30in /  1017.3hPa NW 4mph /  6.4km/h 11mph /  17.7km/h 62% 0in /  0.0mm 744 W/m2
14:56 71.2 °F /  21.8 °C 57 °F /  13.9 °C 30in /  1016.9hPa West 6mph /  9.7km/h 10mph /  16.1km/h 61% 0in /  0.0mm 721 W/m2
15:01 71.4 °F /  21.9 °C 56.8 °F /  13.8 °C 30in /  1016.9hPa WSW 4mph /  6.4km/h 11mph /  17.7km/h 60% 0in /  0.0mm 693 W/m2
15:06 72 °F /  22.2 °C 59.2 °F /  15.1 °C 30in /  1016.9hPa WSW 4mph /  6.4km/h 8mph /  12.9km/h 64% 0in /  0.0mm 705 W/m2
15:11 72.3 °F /  22.4 °C 58.1 °F /  14.5 °C 30in /  1016.9hPa WNW 4mph /  6.4km/h 10mph /  16.1km/h 61% 0in /  0.0mm 694 W/m2
15:16 72.3 °F /  22.4 °C 57.7 °F /  14.3 °C 30in /  1016.9hPa West 2.9mph /  4.7km/h 9mph /  14.5km/h 60% 0in /  0.0mm 710 W/m2
15:21 71.4 °F /  21.9 °C 56.8 °F /  13.8 °C 30in /  1016.9hPa WSW 8.1mph /  13km/h 9mph /  14.5km/h 60% 0in /  0.0mm 174 W/m2
15:26 71.2 °F /  21.8 °C 57 °F /  13.9 °C 30in /  1016.9hPa NW 4.9mph /  7.9km/h 7mph /  11.3km/h 61% 0in /  0.0mm 712 W/m2
15:31 71.4 °F /  21.9 °C 57.7 °F /  14.3 °C 30in /  1016.9hPa WNW 4mph /  6.4km/h 5mph /  8km/h 62% 0in /  0.0mm 664 W/m2
15:36 70.9 °F /  21.6 °C 56.8 °F /  13.8 °C 30in /  1016.9hPa WNW 4mph /  6.4km/h 7mph /  11.3km/h 61% 0in /  0.0mm 120 W/m2
15:41 70.5 °F /  21.4 °C 56.5 °F /  13.6 °C 30in /  1016.9hPa WNW 4.9mph /  7.9km/h 8mph /  12.9km/h 61% 0in /  0.0mm 657 W/m2
15:46 70.9 °F /  21.6 °C 55.8 °F /  13.2 °C 30in /  1016.9hPa West 8.9mph /  14.3km/h 9mph /  14.5km/h 59% 0in /  0.0mm 622 W/m2
15:51 71.2 °F /  21.8 °C 55.8 °F /  13.2 °C 30in /  1016.9hPa West 8.1mph /  13km/h 8mph /  12.9km/h 58% 0in /  0.0mm 610 W/m2
15:56 71.8 °F /  22.1 °C 56.1 °F /  13.4 °C 30in /  1016.9hPa WSW 11mph /  17.7km/h 11mph /  17.7km/h 58% 0in /  0.0mm 631 W/m2
16:01 71.6 °F /  22 °C 57 °F /  13.9 °C 30in /  1016.9hPa WSW 4mph /  6.4km/h 6mph /  9.7km/h 60% 0in /  0.0mm 601 W/m2
16:06 71.4 °F /  21.9 °C 55.9 °F /  13.3 °C 30in /  1016.9hPa West 6mph /  9.7km/h 8mph /  12.9km/h 58% 0in /  0.0mm 148 W/m2
16:11 71.1 °F /  21.7 °C 55.9 °F /  13.3 °C 30in /  1016.9hPa NW 2mph /  3.2km/h 7mph /  11.3km/h 59% 0in /  0.0mm 578 W/m2
16:17 71.2 °F /  21.8 °C 56.1 °F /  13.4 °C 30in /  1017.3hPa WNW 6.9mph /  11.1km/h 11mph /  17.7km/h 59% 0in /  0.0mm 568 W/m2
16:22 71.4 °F /  21.9 °C 55.9 °F /  13.3 °C 30in /  1016.9hPa WNW 2mph /  3.2km/h 6mph /  9.7km/h 58% 0in /  0.0mm 566 W/m2
16:27 71.8 °F /  22.1 °C 55.8 °F /  13.2 °C 30in /  1017.3hPa WNW 8.9mph /  14.3km/h 11mph /  17.7km/h 57% 0in /  0.0mm 563 W/m2
16:32 71.8 °F /  22.1 °C 56.1 °F /  13.4 °C 30in /  1017.3hPa West 2.9mph /  4.7km/h 9mph /  14.5km/h 58% 0in /  0.0mm 561 W/m2
16:37 71.8 °F /  22.1 °C 56.1 °F /  13.4 °C 30in /  1017.3hPa WNW 6mph /  9.7km/h 6mph /  9.7km/h 58% 0in /  0.0mm 543 W/m2
16:42 71.4 °F /  21.9 °C 55.9 °F /  13.3 °C 30in /  1017.3hPa WNW 2.9mph /  4.7km/h 10mph /  16.1km/h 58% 0in /  0.0mm 151 W/m2
16:47 71.1 °F /  21.7 °C 56.5 °F /  13.6 °C 30in /  1017.3hPa West 4mph /  6.4km/h 7mph /  11.3km/h 60% 0in /  0.0mm 545 W/m2
16:52 71.1 °F /  21.7 °C 55.9 °F /  13.3 °C 30in /  1017.3hPa WSW 4mph /  6.4km/h 8mph /  12.9km/h 59% 0in /  0.0mm 95 W/m2
16:57 71.1 °F /  21.7 °C 56.5 °F /  13.6 °C 30in /  1017.3hPa West 6.9mph /  11.1km/h 9mph /  14.5km/h 60% 0in /  0.0mm 512 W/m2
17:02 71.1 °F /  21.7 °C 56.8 °F /  13.8 °C 30in /  1017.3hPa WSW 4.9mph /  7.9km/h 8mph /  12.9km/h 61% 0in /  0.0mm 483 W/m2
17:07 71.2 °F /  21.8 °C 56.7 °F /  13.7 °C 30in /  1017.3hPa WSW 8.9mph /  14.3km/h 9mph /  14.5km/h 60% 0in /  0.0mm 501 W/m2
17:12 71.4 °F /  21.9 °C 55.9 °F /  13.3 °C 30in /  1017.3hPa WNW 4mph /  6.4km/h 10mph /  16.1km/h 58% 0in /  0.0mm 443 W/m2
17:17 72 °F /  22.2 °C 56.3 °F /  13.5 °C 30in /  1017.3hPa WSW 2.9mph /  4.7km/h 8mph /  12.9km/h 58% 0in /  0.0mm 445 W/m2
17:22 72.1 °F /  22.3 °C 57.6 °F /  14.2 °C 30in /  1017.3hPa WNW 8.1mph /  13km/h 10mph /  16.1km/h 60% 0in /  0.0mm 432 W/m2
17:27 72 °F /  22.2 °C 55.4 °F /  13 °C 30in /  1017.3hPa West 4mph /  6.4km/h 8mph /  12.9km/h 56% 0in /  0.0mm 401 W/m2
17:32 71.8 °F /  22.1 °C 56.1 °F /  13.4 °C 30in /  1017.3hPa West 4mph /  6.4km/h 8mph /  12.9km/h 58% 0in /  0.0mm 387 W/m2
17:37 71.6 °F /  22 °C 55.6 °F /  13.1 °C 30in /  1017.3hPa WNW 2mph /  3.2km/h 6mph /  9.7km/h 57% 0in /  0.0mm 380 W/m2
17:42 71.6 °F /  22 °C 56.5 °F /  13.6 °C 30in /  1017.3hPa West 2.9mph /  4.7km/h 6mph /  9.7km/h 59% 0in /  0.0mm 394 W/m2
17:47 71.8 °F /  22.1 °C 56.7 °F /  13.7 °C 30in /  1016.9hPa SW 0.9mph /  1.4km/h 4mph /  6.4km/h 59% 0in /  0.0mm 374 W/m2
17:52 72 °F /  22.2 °C 57.4 °F /  14.1 °C 30in /  1016.9hPa SW 4mph /  6.4km/h 4mph /  6.4km/h 60% 0in /  0.0mm 343 W/m2
17:57 72.1 °F /  22.3 °C 56.5 °F /  13.6 °C 30in /  1016.9hPa WNW 4mph /  6.4km/h 6mph /  9.7km/h 58% 0in /  0.0mm 309 W/m2
18:02 72 °F /  22.2 °C 55.9 °F /  13.3 °C 30in /  1016.9hPa West 6.9mph /  11.1km/h 7mph /  11.3km/h 57% 0in /  0.0mm 292 W/m2
18:07 71.4 °F /  21.9 °C 55.9 °F /  13.3 °C 30in /  1016.9hPa WSW 2.9mph /  4.7km/h 8mph /  12.9km/h 58% 0in /  0.0mm 278 W/m2
18:12 71.2 °F /  21.8 °C 56.1 °F /  13.4 °C 30in /  1016.9hPa West 2mph /  3.2km/h 7mph /  11.3km/h 59% 0in /  0.0mm 260 W/m2
18:17 71.1 °F /  21.7 °C 56.5 °F /  13.6 °C 30in /  1016.9hPa West 2mph /  3.2km/h 4mph /  6.4km/h 60% 0in /  0.0mm 243 W/m2
18:22 71.1 °F /  21.7 °C 56.8 °F /  13.8 °C 30in /  1016.9hPa West 2.9mph /  4.7km/h 4mph /  6.4km/h 61% 0in /  0.0mm 230 W/m2
18:27 71.1 °F /  21.7 °C 56.5 °F /  13.6 °C 30in /  1016.9hPa WNW 4mph /  6.4km/h 5mph /  8km/h 60% 0in /  0.0mm 218 W/m2
18:32 70.7 °F /  21.5 °C 56.7 °F /  13.7 °C 30in /  1016.9hPa West 2.9mph /  4.7km/h 6mph /  9.7km/h 61% 0in /  0.0mm 202 W/m2
18:37 70.5 °F /  21.4 °C 55.9 °F /  13.3 °C 30in /  1016.9hPa West 0.9mph /  1.4km/h 3mph /  4.8km/h 60% 0in /  0.0mm 186 W/m2
18:42 70.2 °F /  21.2 °C 56.1 °F /  13.4 °C 30in /  1016.9hPa West 2mph /  3.2km/h 4mph /  6.4km/h 61% 0in /  0.0mm 174 W/m2
18:47 69.8 °F /  21 °C 56.1 °F /  13.4 °C 30in /  1016.9hPa WSW 2.9mph /  4.7km/h 3mph /  4.8km/h 62% 0in /  0.0mm 160 W/m2
18:52 69.4 °F /  20.8 °C 55.4 °F /  13 °C 30in /  1016.9hPa West 4mph /  6.4km/h 5mph /  8km/h 61% 0in /  0.0mm 142 W/m2
18:57 69.3 °F /  20.7 °C 56.1 °F /  13.4 °C 30in /  1016.9hPa West 0.9mph /  1.4km/h 3mph /  4.8km/h 63% 0in /  0.0mm 111 W/m2
19:02 68.7 °F /  20.4 °C 54.7 °F /  12.6 °C 30in /  1016.9hPa West 2.9mph /  4.7km/h 6mph /  9.7km/h 61% 0in /  0.0mm 95 W/m2
19:07 68.5 °F /  20.3 °C 55.9 °F /  13.3 °C 30in /  1016.9hPa WSW 0.9mph /  1.4km/h 2mph /  3.2km/h 64% 0in /  0.0mm 30 W/m2
19:12 68 °F /  20 °C 55.8 °F /  13.2 °C 30in /  1016.9hPa WNW 6mph /  9.7km/h 6mph /  9.7km/h 65% 0in /  0.0mm 26 W/m2
19:17 67.5 °F /  19.7 °C 55.8 °F /  13.2 °C 30in /  1017.3hPa WSW 0.9mph /  1.4km/h 2mph /  3.2km/h 66% 0in /  0.0mm 21 W/m2
19:22 67.1 °F /  19.5 °C 55.4 °F /  13 °C 30in /  1016.9hPa WSW 2mph /  3.2km/h 3mph /  4.8km/h 66% 0in /  0.0mm 21 W/m2
19:27 66.7 °F /  19.3 °C 55.4 °F /  13 °C 30in /  1017.3hPa WSW 0.9mph /  1.4km/h 2mph /  3.2km/h 67% 0in /  0.0mm 19 W/m2
19:32 66.4 °F /  19.1 °C 55.6 °F /  13.1 °C 30in /  1017.3hPa SW 0.9mph /  1.4km/h 3mph /  4.8km/h 68% 0in /  0.0mm 19 W/m2
19:37 66.2 °F /  19 °C 54.9 °F /  12.7 °C 30in /  1017.3hPa WSW 0.9mph /  1.4km/h 3mph /  4.8km/h 67% 0in /  0.0mm 16 W/m2
19:42 66 °F /  18.9 °C 55.2 °F /  12.9 °C 30in /  1017.3hPa WSW 4mph /  6.4km/h 4mph /  6.4km/h 68% 0in /  0.0mm 12 W/m2
19:47 65.8 °F /  18.8 °C 55 °F /  12.8 °C 30in /  1017.3hPa WSW 0.9mph /  1.4km/h 4mph /  6.4km/h 68% 0in /  0.0mm 11 W/m2
19:52 65.8 °F /  18.8 °C 55 °F /  12.8 °C 30in /  1017.3hPa WSW 0.9mph /  1.4km/h 3mph /  4.8km/h 68% 0in /  0.0mm 7 W/m2
19:57 65.7 °F /  18.7 °C 54.9 °F /  12.7 °C 30in /  1017.3hPa West 0.9mph /  1.4km/h 3mph /  4.8km/h 68% 0in /  0.0mm 5 W/m2
20:02 65.5 °F /  18.6 °C 55.4 °F /  13 °C 30in /  1017.3hPa West 0.9mph /  1.4km/h 2mph /  3.2km/h 70% 0in /  0.0mm 0 W/m2
20:07 65.1 °F /  18.4 °C 55.4 °F /  13 °C 30in /  1017.3hPa Calm   3mph /  4.8km/h 71% 0in /  0.0mm 0 W/m2
20:12 64.8 °F /  18.2 °C 55.9 °F /  13.3 °C 30in /  1017.3hPa Calm     73% 0in /  0.0mm 0 W/m2
20:17 64.6 °F /  18.1 °C 56.1 °F /  13.4 °C 30in /  1017.3hPa Calm     74% 0in /  0.0mm 0 W/m2
20:22 64 °F /  17.8 °C 55.6 °F /  13.1 °C 30in /  1017.3hPa Calm     74% 0in /  0.0mm 0 W/m2
20:27 63.3 °F /  17.4 °C 55.2 °F /  12.9 °C 30in /  1017.3hPa West 0.9mph /  1.4km/h 1mph /  1.6km/h 75% 0in /  0.0mm 0 W/m2
20:32 63 °F /  17.2 °C 55.6 °F /  13.1 °C 30in /  1017.3hPa Calm   1mph /  1.6km/h 77% 0in /  0.0mm 0 W/m2
20:37 62.6 °F /  17 °C 55.6 °F /  13.1 °C 30.1in /  1017.6hPa Calm   1mph /  1.6km/h 78% 0in /  0.0mm 0 W/m2
20:42 62.2 °F /  16.8 °C 55.2 °F /  12.9 °C 30.1in /  1017.6hPa Calm     78% 0in /  0.0mm 0 W/m2
20:47 61.9 °F /  16.6 °C 55.6 °F /  13.1 °C 30.1in /  1017.6hPa Calm   1mph /  1.6km/h 80% 0in /  0.0mm 0 W/m2
20:52 61.5 °F /  16.4 °C 55.2 °F /  12.9 °C 30.1in /  1017.6hPa Calm     80% 0in /  0.0mm 0 W/m2
20:57 61.3 °F /  16.3 °C 55.4 °F /  13 °C 30.1in /  1017.6hPa Calm     81% 0in /  0.0mm 0 W/m2
21:02 61 °F /  16.1 °C 55.4 °F /  13 °C 30.1in /  1017.6hPa Calm     82% 0in /  0.0mm 0 W/m2
21:07 60.6 °F /  15.9 °C 55 °F /  12.8 °C 30.1in /  1017.6hPa Calm     82% 0in /  0.0mm 0 W/m2
21:12 60.4 °F /  15.8 °C 55.2 °F /  12.9 °C 30.1in /  1017.6hPa Calm     83% 0in /  0.0mm 0 W/m2
21:17 60.3 °F /  15.7 °C 55.4 °F /  13 °C 30.1in /  1017.6hPa Calm     84% 0in /  0.0mm 0 W/m2
21:22 59.9 °F /  15.5 °C 55 °F /  12.8 °C 30.1in /  1018.0hPa Calm     84% 0in /  0.0mm 0 W/m2
21:27 59.7 °F /  15.4 °C 54.9 °F /  12.7 °C 30.1in /  1017.6hPa Calm     84% 0in /  0.0mm 0 W/m2
21:32 59.5 °F /  15.3 °C 54.7 °F /  12.6 °C 30.1in /  1018.0hPa Calm     84% 0in /  0.0mm 0 W/m2
21:37 59.4 °F /  15.2 °C 54.9 °F /  12.7 °C 30.1in /  1018.0hPa Calm     85% 0in /  0.0mm 0 W/m2
21:42 59.2 °F /  15.1 °C 54.7 °F /  12.6 °C 30.1in /  1018.0hPa Calm     85% 0in /  0.0mm 0 W/m2
21:47 58.8 °F /  14.9 °C 54.3 °F /  12.4 °C 30.1in /  1018.0hPa Calm     85% 0in /  0.0mm 0 W/m2
21:52 58.6 °F /  14.8 °C 54.1 °F /  12.3 °C 30.1in /  1018.0hPa Calm     85% 0in /  0.0mm 0 W/m2
21:57 58.5 °F /  14.7 °C 54.3 °F /  12.4 °C 30.1in /  1018.0hPa Calm     86% 0in /  0.0mm 0 W/m2
22:02 58.3 °F /  14.6 °C 54.1 °F /  12.3 °C 30.1in /  1018.0hPa Calm     86% 0in /  0.0mm 0 W/m2
22:07 57.9 °F /  14.4 °C 54.1 °F /  12.3 °C 30.1in /  1018.0hPa Calm     87% 0in /  0.0mm 0 W/m2
22:12 57.7 °F /  14.3 °C 54 °F /  12.2 °C 30.1in /  1018.0hPa Calm     87% 0in /  0.0mm 0 W/m2
22:17 57.7 °F /  14.3 °C 54.1 °F /  12.3 °C 30.1in /  1018.0hPa Calm     88% 0in /  0.0mm 0 W/m2
22:22 57.6 °F /  14.2 °C 54 °F /  12.2 °C 30.1in /  1018.0hPa Calm     88% 0in /  0.0mm 0 W/m2
22:27 57.6 °F /  14.2 °C 54.3 °F /  12.4 °C 30.1in /  1018.0hPa Calm     89% 0in /  0.0mm 0 W/m2
22:32 57.4 °F /  14.1 °C 54.1 °F /  12.3 °C 30.1in /  1018.0hPa Calm     89% 0in /  0.0mm 0 W/m2
22:38 57.4 °F /  14.1 °C 54.1 °F /  12.3 °C 30.1in /  1018.0hPa Calm     89% 0in /  0.0mm 0 W/m2
22:43 57.2 °F /  14 °C 54 °F /  12.2 °C 30.1in /  1018.0hPa Calm     89% 0in /  0.0mm 0 W/m2
22:48 57 °F /  13.9 °C 54.1 °F /  12.3 °C 30.1in /  1018.0hPa Calm     90% 0in /  0.0mm 0 W/m2
22:53 56.8 °F /  13.8 °C 54 °F /  12.2 °C 30.1in /  1018.0hPa Calm     90% 0in /  0.0mm 0 W/m2
22:58 56.8 °F /  13.8 °C 54 °F /  12.2 °C 30.1in /  1018.0hPa Calm     90% 0in /  0.0mm 0 W/m2
23:03 56.7 °F /  13.7 °C 53.8 °F /  12.1 °C 30.1in /  1018.0hPa Calm     90% 0in /  0.0mm 0 W/m2
23:08 56.5 °F /  13.6 °C 53.6 °F /  12 °C 30.1in /  1018.0hPa Calm     90% 0in /  0.0mm 0 W/m2
23:13 56.5 °F /  13.6 °C 53.6 °F /  12 °C 30.1in /  1018.0hPa Calm     90% 0in /  0.0mm 0 W/m2
23:18 56.3 °F /  13.5 °C 53.8 °F /  12.1 °C 30.1in /  1018.0hPa Calm     91% 0in /  0.0mm 0 W/m2
23:23 56.1 °F /  13.4 °C 53.6 °F /  12 °C 30.1in /  1018.0hPa Calm     91% 0in /  0.0mm 0 W/m2
23:28 56.1 °F /  13.4 °C 53.6 °F /  12 °C 30.1in /  1018.0hPa Calm     91% 0in /  0.0mm 0 W/m2
23:33 55.9 °F /  13.3 °C 53.4 °F /  11.9 °C 30.1in /  1018.0hPa Calm     91% 0in /  0.0mm 0 W/m2
23:38 55.8 °F /  13.2 °C 53.2 °F /  11.8 °C 30.1in /  1018.0hPa Calm     91% 0in /  0.0mm 0 W/m2
23:43 55.8 °F /  13.2 °C 53.2 °F /  11.8 °C 30.1in /  1018.0hPa Calm     91% 0in /  0.0mm 0 W/m2
23:48 55.6 °F /  13.1 °C 53.2 °F /  11.8 °C 30.1in /  1018.3hPa Calm     92% 0in /  0.0mm 0 W/m2
23:53 55.6 °F /  13.1 °C 53.2 °F /  11.8 °C 30.1in /  1018.0hPa Calm     92% 0in /  0.0mm 0 W/m2
23:58 55.6 °F /  13.1 °C 53.2 °F /  11.8 °C 30.1in /  1018.0hPa Calm     92% 0in /  0.0mm 0 W/m2
Juneau County Weather
Compliments of Weather Underground - 2 mb